Sontag, MS (39665)

05:57 CST le 20 janvier 2017 (GMT -0600)
Brookhaven | | Change Station

Alt. 489 ft 31.61 °N, 90.41 °W | Updated 2 minutes ago

Couvert
Couvert
61 ° F
Paraît 61 ° F
N
5
Vent Variable Vent de Sud

Aujourd'hui
Haut(e) -- | Bas -- ° F
--% Risque de précip.
Hier
Haut(e) -- | Bas -- ° F
Precip. -- pouce
Pression 29.81 pouce
Visibilité 2.5 Miles terrestres
Nuages Couvert 200 ft
Point de rosée 61 ° F
Humidité 100%
Précipitations 0.00 pouce
Profondeur de la couche neigeuse Non disponible.
6:59 AM 5:24 PM
Dernier quartier, 45% visible
METAR K1R7 201155Z AUTO 18004KT 2 1/2SM BR OVC002 16/16 A2981 RMK AO2
Pression 29.81 pouce
Visibilité 2.5 Miles terrestres
Nuages Couvert 200 ft
Point de rosée 61 ° F
Humidité 100%
Précipitations 0.00 pouce
Profondeur de la couche neigeuse Non disponible.
6:59 AM 5:24 PM
Dernier quartier, 45% visible
METAR K1R7 201155Z AUTO 18004KT 2 1/2SM BR OVC002 16/16 A2981 RMK AO2

Get Your Daily Forecast Email!

Thanks for signing up!

Be on the lookout for a verification email in your inbox.

You'll start receiving the daily forecast at 8 AM.

×

10-Day Weather Forecast

Almanac

Astronomie

Jan. 20, 2017 Lever Coucher
Temps réel
Crépuscule civil
Crépuscule nautique
Crépuscule astronomique
Lune
Durée de lumière visible
Longueur du jour
Tomorrow will be .
, % of the Moon is Illuminated

Extrêmes aujourd'hui

State Highs State Lows

Community

WunderPhotos

Upload Photos

1,962,540 Photos téléchargées !

WunderBlog® & News

Nearby

Qualité de l'air

  Qualité de l'air Indice de la qualité de l'air Polluant
Not available.

Épaisseur de neige

Station Depth Altitude

Activité sismique

Ville Distance Mag. Time & Date
Minimum magnitude displayed is 2.5.

Températures des eaux côtières

Lieu Température

Stations

Stations météo à proximité

Emplacement de la station Température Refroidissement éolien Point de rosée Humidité Vent Precip. Alt. Mise à jour Type
                   

Watches & Warnings

There are currently no watches in effect.